sensor_id;sensor_type;location;lat;lon;timestamp;P1;durP1;ratioP1;P2;durP2;ratioP2
41693;SDS011;27377;50.666;9.150;2024-01-06T00:02:22;6.20;;;1.70;;
41693;SDS011;27377;50.666;9.150;2024-01-06T00:04:47;7.25;;;1.80;;
41693;SDS011;27377;50.666;9.150;2024-01-06T00:07:13;6.13;;;1.50;;
41693;SDS011;27377;50.666;9.150;2024-01-06T00:09:39;5.28;;;1.77;;
41693;SDS011;27377;50.666;9.150;2024-01-06T00:12:05;8.87;;;1.90;;
41693;SDS011;27377;50.666;9.150;2024-01-06T00:14:31;7.00;;;2.00;;
41693;SDS011;27377;50.666;9.150;2024-01-06T00:16:56;5.10;;;1.50;;
41693;SDS011;27377;50.666;9.150;2024-01-06T00:19:22;5.87;;;1.90;;
41693;SDS011;27377;50.666;9.150;2024-01-06T00:21:47;8.43;;;2.00;;
41693;SDS011;27377;50.666;9.150;2024-01-06T00:24:13;5.23;;;1.70;;
41693;SDS011;27377;50.666;9.150;2024-01-06T00:26:39;6.27;;;1.50;;
41693;SDS011;27377;50.666;9.150;2024-01-06T00:29:04;7.23;;;2.00;;
41693;SDS011;27377;50.666;9.150;2024-01-06T00:31:29;6.33;;;1.83;;
41693;SDS011;27377;50.666;9.150;2024-01-06T00:33:55;7.33;;;1.80;;
41693;SDS011;27377;50.666;9.150;2024-01-06T00:36:21;4.73;;;1.53;;
41693;SDS011;27377;50.666;9.150;2024-01-06T00:38:46;5.17;;;1.70;;
41693;SDS011;27377;50.666;9.150;2024-01-06T00:41:13;6.37;;;1.63;;
41693;SDS011;27377;50.666;9.150;2024-01-06T00:43:39;5.97;;;1.58;;
41693;SDS011;27377;50.666;9.150;2024-01-06T00:46:04;5.87;;;1.50;;
41693;SDS011;27377;50.666;9.150;2024-01-06T00:48:30;5.90;;;1.60;;
41693;SDS011;27377;50.666;9.150;2024-01-06T00:50:55;5.10;;;1.70;;
41693;SDS011;27377;50.666;9.150;2024-01-06T00:53:21;8.43;;;1.87;;
41693;SDS011;27377;50.666;9.150;2024-01-06T00:55:47;6.67;;;2.00;;
41693;SDS011;27377;50.666;9.150;2024-01-06T00:58:12;6.47;;;1.80;;
41693;SDS011;27377;50.666;9.150;2024-01-06T01:00:38;8.60;;;1.90;;
41693;SDS011;27377;50.666;9.150;2024-01-06T01:03:04;6.75;;;1.70;;
41693;SDS011;27377;50.666;9.150;2024-01-06T01:05:29;6.65;;;1.98;;
41693;SDS011;27377;50.666;9.150;2024-01-06T01:07:55;5.75;;;1.70;;
41693;SDS011;27377;50.666;9.150;2024-01-06T01:10:20;5.03;;;1.60;;
41693;SDS011;27377;50.666;9.150;2024-01-06T01:12:46;5.47;;;1.87;;
41693;SDS011;27377;50.666;9.150;2024-01-06T01:15:12;7.50;;;1.80;;
41693;SDS011;27377;50.666;9.150;2024-01-06T01:17:37;6.25;;;1.95;;
41693;SDS011;27377;50.666;9.150;2024-01-06T01:20:03;7.28;;;1.90;;
41693;SDS011;27377;50.666;9.150;2024-01-06T01:22:29;6.25;;;1.85;;
41693;SDS011;27377;50.666;9.150;2024-01-06T01:24:55;5.53;;;1.60;;
41693;SDS011;27377;50.666;9.150;2024-01-06T01:27:20;6.93;;;1.97;;
41693;SDS011;27377;50.666;9.150;2024-01-06T01:29:46;6.13;;;1.80;;
41693;SDS011;27377;50.666;9.150;2024-01-06T01:32:13;5.78;;;1.60;;
41693;SDS011;27377;50.666;9.150;2024-01-06T01:34:38;8.50;;;1.95;;
41693;SDS011;27377;50.666;9.150;2024-01-06T01:37:04;6.05;;;1.80;;
41693;SDS011;27377;50.666;9.150;2024-01-06T01:39:29;6.88;;;2.13;;
41693;SDS011;27377;50.666;9.150;2024-01-06T01:41:55;7.50;;;2.03;;
41693;SDS011;27377;50.666;9.150;2024-01-06T01:44:21;9.18;;;2.15;;
41693;SDS011;27377;50.666;9.150;2024-01-06T01:46:46;8.23;;;1.90;;
41693;SDS011;27377;50.666;9.150;2024-01-06T01:49:12;7.68;;;2.00;;
41693;SDS011;27377;50.666;9.150;2024-01-06T01:51:38;6.95;;;2.10;;
41693;SDS011;27377;50.666;9.150;2024-01-06T01:54:05;5.83;;;2.27;;
41693;SDS011;27377;50.666;9.150;2024-01-06T01:56:32;6.15;;;2.10;;
41693;SDS011;27377;50.666;9.150;2024-01-06T01:58:59;4.95;;;2.00;;
41693;SDS011;27377;50.666;9.150;2024-01-06T02:01:36;6.80;;;1.98;;
41693;SDS011;27377;50.666;9.150;2024-01-06T02:04:02;6.60;;;2.13;;
41693;SDS011;27377;50.666;9.150;2024-01-06T02:06:28;6.97;;;2.20;;
41693;SDS011;27377;50.666;9.150;2024-01-06T02:08:53;7.03;;;2.37;;
41693;SDS011;27377;50.666;9.150;2024-01-06T02:11:19;7.47;;;2.15;;
41693;SDS011;27377;50.666;9.150;2024-01-06T02:13:45;5.00;;;1.90;;
41693;SDS011;27377;50.666;9.150;2024-01-06T02:16:10;6.93;;;2.30;;
41693;SDS011;27377;50.666;9.150;2024-01-06T02:18:36;6.80;;;2.28;;
41693;SDS011;27377;50.666;9.150;2024-01-06T02:21:02;5.40;;;2.10;;
41693;SDS011;27377;50.666;9.150;2024-01-06T02:23:28;8.00;;;2.42;;
41693;SDS011;27377;50.666;9.150;2024-01-06T02:25:54;7.95;;;2.15;;
41693;SDS011;27377;50.666;9.150;2024-01-06T02:28:20;6.55;;;2.25;;
41693;SDS011;27377;50.666;9.150;2024-01-06T02:30:46;6.38;;;2.13;;
41693;SDS011;27377;50.666;9.150;2024-01-06T02:33:12;6.10;;;1.93;;
41693;SDS011;27377;50.666;9.150;2024-01-06T02:35:37;7.00;;;2.27;;
41693;SDS011;27377;50.666;9.150;2024-01-06T02:38:05;6.70;;;2.20;;
41693;SDS011;27377;50.666;9.150;2024-01-06T02:40:30;8.48;;;2.20;;
41693;SDS011;27377;50.666;9.150;2024-01-06T02:42:57;5.57;;;2.00;;
41693;SDS011;27377;50.666;9.150;2024-01-06T02:45:23;6.63;;;2.10;;
41693;SDS011;27377;50.666;9.150;2024-01-06T02:47:48;7.57;;;2.17;;
41693;SDS011;27377;50.666;9.150;2024-01-06T02:50:14;8.73;;;2.40;;
41693;SDS011;27377;50.666;9.150;2024-01-06T02:52:39;7.77;;;2.43;;
41693;SDS011;27377;50.666;9.150;2024-01-06T02:55:05;6.57;;;2.30;;
41693;SDS011;27377;50.666;9.150;2024-01-06T02:57:31;7.68;;;2.40;;
41693;SDS011;27377;50.666;9.150;2024-01-06T02:59:56;6.60;;;2.43;;
41693;SDS011;27377;50.666;9.150;2024-01-06T03:02:22;9.10;;;2.57;;
41693;SDS011;27377;50.666;9.150;2024-01-06T03:04:48;8.17;;;2.20;;
41693;SDS011;27377;50.666;9.150;2024-01-06T03:07:13;7.33;;;2.40;;
41693;SDS011;27377;50.666;9.150;2024-01-06T03:09:39;7.80;;;2.47;;
41693;SDS011;27377;50.666;9.150;2024-01-06T03:12:05;8.40;;;2.20;;
41693;SDS011;27377;50.666;9.150;2024-01-06T03:14:32;7.70;;;2.42;;
41693;SDS011;27377;50.666;9.150;2024-01-06T03:17:01;8.70;;;2.33;;
41693;SDS011;27377;50.666;9.150;2024-01-06T03:19:27;8.75;;;2.50;;
41693;SDS011;27377;50.666;9.150;2024-01-06T03:21:54;8.40;;;2.80;;
41693;SDS011;27377;50.666;9.150;2024-01-06T03:24:20;8.65;;;2.45;;
41693;SDS011;27377;50.666;9.150;2024-01-06T03:26:46;5.97;;;2.20;;
41693;SDS011;27377;50.666;9.150;2024-01-06T03:29:12;9.73;;;2.40;;
41693;SDS011;27377;50.666;9.150;2024-01-06T03:31:37;7.67;;;2.40;;
41693;SDS011;27377;50.666;9.150;2024-01-06T03:34:06;5.38;;;2.33;;
41693;SDS011;27377;50.666;9.150;2024-01-06T03:36:33;6.93;;;2.15;;
41693;SDS011;27377;50.666;9.150;2024-01-06T03:38:59;7.73;;;2.40;;
41693;SDS011;27377;50.666;9.150;2024-01-06T03:41:24;8.47;;;2.70;;
41693;SDS011;27377;50.666;9.150;2024-01-06T03:43:50;8.87;;;3.87;;
41693;SDS011;27377;50.666;9.150;2024-01-06T03:46:15;8.53;;;2.80;;
41693;SDS011;27377;50.666;9.150;2024-01-06T03:48:41;8.30;;;2.90;;
41693;SDS011;27377;50.666;9.150;2024-01-06T03:51:07;14.23;;;5.97;;
41693;SDS011;27377;50.666;9.150;2024-01-06T03:53:32;8.57;;;3.05;;
41693;SDS011;27377;50.666;9.150;2024-01-06T03:55:58;6.80;;;3.00;;
41693;SDS011;27377;50.666;9.150;2024-01-06T03:58:24;9.43;;;3.00;;
41693;SDS011;27377;50.666;9.150;2024-01-06T04:00:49;6.33;;;2.37;;
41693;SDS011;27377;50.666;9.150;2024-01-06T04:03:15;10.00;;;3.10;;
41693;SDS011;27377;50.666;9.150;2024-01-06T04:05:40;13.90;;;4.77;;
41693;SDS011;27377;50.666;9.150;2024-01-06T04:08:06;12.52;;;4.55;;
41693;SDS011;27377;50.666;9.150;2024-01-06T04:10:33;13.13;;;4.82;;
41693;SDS011;27377;50.666;9.150;2024-01-06T04:12:58;8.98;;;3.58;;
41693;SDS011;27377;50.666;9.150;2024-01-06T04:15:24;7.07;;;2.97;;
41693;SDS011;27377;50.666;9.150;2024-01-06T04:17:49;8.57;;;3.38;;
41693;SDS011;27377;50.666;9.150;2024-01-06T04:20:15;8.63;;;2.92;;
41693;SDS011;27377;50.666;9.150;2024-01-06T04:22:40;5.30;;;2.42;;
41693;SDS011;27377;50.666;9.150;2024-01-06T04:25:06;8.43;;;3.40;;
41693;SDS011;27377;50.666;9.150;2024-01-06T04:27:32;10.77;;;2.90;;
41693;SDS011;27377;50.666;9.150;2024-01-06T04:29:59;8.23;;;2.67;;
41693;SDS011;27377;50.666;9.150;2024-01-06T04:32:24;8.50;;;2.63;;
41693;SDS011;27377;50.666;9.150;2024-01-06T04:34:50;5.85;;;2.35;;
41693;SDS011;27377;50.666;9.150;2024-01-06T04:37:15;7.17;;;2.43;;
41693;SDS011;27377;50.666;9.150;2024-01-06T04:39:41;5.23;;;2.10;;
41693;SDS011;27377;50.666;9.150;2024-01-06T04:42:07;8.33;;;2.83;;
41693;SDS011;27377;50.666;9.150;2024-01-06T04:44:32;7.57;;;2.70;;
41693;SDS011;27377;50.666;9.150;2024-01-06T04:46:58;7.30;;;2.40;;
41693;SDS011;27377;50.666;9.150;2024-01-06T04:49:23;7.83;;;2.43;;
41693;SDS011;27377;50.666;9.150;2024-01-06T04:51:49;8.07;;;2.73;;
41693;SDS011;27377;50.666;9.150;2024-01-06T04:54:15;7.60;;;2.40;;
41693;SDS011;27377;50.666;9.150;2024-01-06T04:56:40;7.73;;;2.60;;
41693;SDS011;27377;50.666;9.150;2024-01-06T04:59:06;6.60;;;2.50;;
41693;SDS011;27377;50.666;9.150;2024-01-06T05:01:31;8.23;;;2.50;;
41693;SDS011;27377;50.666;9.150;2024-01-06T05:03:57;7.43;;;2.63;;
41693;SDS011;27377;50.666;9.150;2024-01-06T05:06:24;4.80;;;2.10;;
41693;SDS011;27377;50.666;9.150;2024-01-06T05:08:49;6.90;;;2.47;;
41693;SDS011;27377;50.666;9.150;2024-01-06T05:11:15;7.60;;;2.70;;
41693;SDS011;27377;50.666;9.150;2024-01-06T05:13:41;7.67;;;2.60;;
41693;SDS011;27377;50.666;9.150;2024-01-06T05:16:07;6.17;;;2.40;;
41693;SDS011;27377;50.666;9.150;2024-01-06T05:18:33;6.90;;;2.35;;
41693;SDS011;27377;50.666;9.150;2024-01-06T05:20:58;5.80;;;2.60;;
41693;SDS011;27377;50.666;9.150;2024-01-06T05:23:24;5.53;;;2.10;;
41693;SDS011;27377;50.666;9.150;2024-01-06T05:25:50;6.90;;;2.72;;
41693;SDS011;27377;50.666;9.150;2024-01-06T05:28:15;7.20;;;2.63;;
41693;SDS011;27377;50.666;9.150;2024-01-06T05:30:41;6.03;;;2.20;;
41693;SDS011;27377;50.666;9.150;2024-01-06T05:33:09;6.93;;;2.20;;
41693;SDS011;27377;50.666;9.150;2024-01-06T05:35:35;5.68;;;2.00;;
41693;SDS011;27377;50.666;9.150;2024-01-06T05:38:00;6.77;;;2.13;;
41693;SDS011;27377;50.666;9.150;2024-01-06T05:40:26;7.00;;;2.27;;
41693;SDS011;27377;50.666;9.150;2024-01-06T05:42:51;6.27;;;2.27;;
41693;SDS011;27377;50.666;9.150;2024-01-06T05:45:20;6.53;;;2.40;;
41693;SDS011;27377;50.666;9.150;2024-01-06T05:47:46;7.97;;;2.30;;
41693;SDS011;27377;50.666;9.150;2024-01-06T05:50:14;5.38;;;2.00;;
41693;SDS011;27377;50.666;9.150;2024-01-06T05:52:41;5.22;;;2.22;;
41693;SDS011;27377;50.666;9.150;2024-01-06T05:55:07;5.67;;;2.20;;
41693;SDS011;27377;50.666;9.150;2024-01-06T05:57:32;4.95;;;1.90;;
41693;SDS011;27377;50.666;9.150;2024-01-06T05:59:59;6.27;;;2.20;;
41693;SDS011;27377;50.666;9.150;2024-01-06T06:02:25;7.55;;;2.17;;
41693;SDS011;27377;50.666;9.150;2024-01-06T06:04:51;5.57;;;1.90;;
41693;SDS011;27377;50.666;9.150;2024-01-06T06:07:17;7.90;;;2.30;;
41693;SDS011;27377;50.666;9.150;2024-01-06T06:09:43;6.65;;;2.42;;
41693;SDS011;27377;50.666;9.150;2024-01-06T06:12:12;6.10;;;2.35;;
41693;SDS011;27377;50.666;9.150;2024-01-06T06:14:37;5.00;;;1.97;;
41693;SDS011;27377;50.666;9.150;2024-01-06T06:17:03;6.50;;;2.07;;
41693;SDS011;27377;50.666;9.150;2024-01-06T06:19:28;7.30;;;2.20;;
41693;SDS011;27377;50.666;9.150;2024-01-06T06:21:54;6.10;;;2.23;;
41693;SDS011;27377;50.666;9.150;2024-01-06T06:24:19;5.03;;;2.03;;
41693;SDS011;27377;50.666;9.150;2024-01-06T06:26:45;7.67;;;2.37;;
41693;SDS011;27377;50.666;9.150;2024-01-06T06:29:10;6.03;;;2.23;;
41693;SDS011;27377;50.666;9.150;2024-01-06T06:31:36;6.63;;;2.50;;
41693;SDS011;27377;50.666;9.150;2024-01-06T06:34:02;6.93;;;2.33;;
41693;SDS011;27377;50.666;9.150;2024-01-06T06:36:27;6.13;;;2.30;;
41693;SDS011;27377;50.666;9.150;2024-01-06T06:38:54;4.43;;;2.03;;
41693;SDS011;27377;50.666;9.150;2024-01-06T06:41:19;6.95;;;2.10;;
41693;SDS011;27377;50.666;9.150;2024-01-06T06:43:45;6.97;;;2.15;;
41693;SDS011;27377;50.666;9.150;2024-01-06T06:46:10;6.93;;;2.10;;
41693;SDS011;27377;50.666;9.150;2024-01-06T06:48:36;5.63;;;1.80;;
41693;SDS011;27377;50.666;9.150;2024-01-06T06:51:02;5.03;;;2.10;;
41693;SDS011;27377;50.666;9.150;2024-01-06T06:53:28;4.93;;;2.00;;
41693;SDS011;27377;50.666;9.150;2024-01-06T06:55:54;6.53;;;2.25;;
41693;SDS011;27377;50.666;9.150;2024-01-06T06:58:19;6.75;;;2.28;;
41693;SDS011;27377;50.666;9.150;2024-01-06T07:00:45;8.00;;;2.30;;
41693;SDS011;27377;50.666;9.150;2024-01-06T07:03:10;4.90;;;2.10;;
41693;SDS011;27377;50.666;9.150;2024-01-06T07:05:36;6.80;;;2.00;;
41693;SDS011;27377;50.666;9.150;2024-01-06T07:08:02;6.10;;;2.20;;
41693;SDS011;27377;50.666;9.150;2024-01-06T07:10:27;5.70;;;1.80;;
41693;SDS011;27377;50.666;9.150;2024-01-06T07:12:53;5.10;;;1.90;;
41693;SDS011;27377;50.666;9.150;2024-01-06T07:15:18;5.50;;;2.10;;
41693;SDS011;27377;50.666;9.150;2024-01-06T07:17:44;6.33;;;2.03;;
41693;SDS011;27377;50.666;9.150;2024-01-06T07:20:09;5.93;;;2.33;;
41693;SDS011;27377;50.666;9.150;2024-01-06T07:22:36;4.90;;;1.77;;
41693;SDS011;27377;50.666;9.150;2024-01-06T07:25:01;5.50;;;2.20;;
41693;SDS011;27377;50.666;9.150;2024-01-06T07:27:27;4.93;;;1.90;;
41693;SDS011;27377;50.666;9.150;2024-01-06T07:29:53;6.25;;;1.95;;
41693;SDS011;27377;50.666;9.150;2024-01-06T07:32:20;4.93;;;2.30;;
41693;SDS011;27377;50.666;9.150;2024-01-06T07:34:47;5.53;;;2.15;;
41693;SDS011;27377;50.666;9.150;2024-01-06T07:37:12;5.00;;;2.03;;
41693;SDS011;27377;50.666;9.150;2024-01-06T07:39:38;5.47;;;2.00;;
41693;SDS011;27377;50.666;9.150;2024-01-06T07:42:03;4.70;;;2.00;;
41693;SDS011;27377;50.666;9.150;2024-01-06T07:44:29;7.53;;;2.20;;
41693;SDS011;27377;50.666;9.150;2024-01-06T07:46:55;5.37;;;2.20;;
41693;SDS011;27377;50.666;9.150;2024-01-06T07:49:20;5.57;;;2.00;;
41693;SDS011;27377;50.666;9.150;2024-01-06T07:51:46;5.93;;;2.20;;
41693;SDS011;27377;50.666;9.150;2024-01-06T07:54:11;6.07;;;2.17;;
41693;SDS011;27377;50.666;9.150;2024-01-06T07:56:38;6.93;;;2.20;;
41693;SDS011;27377;50.666;9.150;2024-01-06T07:59:04;6.35;;;2.20;;
41693;SDS011;27377;50.666;9.150;2024-01-06T08:01:30;8.30;;;2.45;;
41693;SDS011;27377;50.666;9.150;2024-01-06T08:03:56;6.90;;;2.78;;
41693;SDS011;27377;50.666;9.150;2024-01-06T08:06:22;6.43;;;2.95;;
41693;SDS011;27377;50.666;9.150;2024-01-06T08:08:48;7.07;;;2.57;;
41693;SDS011;27377;50.666;9.150;2024-01-06T08:11:13;8.13;;;2.70;;
41693;SDS011;27377;50.666;9.150;2024-01-06T08:13:39;6.30;;;2.60;;
41693;SDS011;27377;50.666;9.150;2024-01-06T08:16:04;7.00;;;2.70;;
41693;SDS011;27377;50.666;9.150;2024-01-06T08:18:30;6.40;;;2.75;;
41693;SDS011;27377;50.666;9.150;2024-01-06T08:20:56;7.00;;;2.80;;
41693;SDS011;27377;50.666;9.150;2024-01-06T08:23:21;7.53;;;3.20;;
41693;SDS011;27377;50.666;9.150;2024-01-06T08:25:47;5.97;;;3.07;;
41693;SDS011;27377;50.666;9.150;2024-01-06T08:28:13;7.60;;;3.20;;
41693;SDS011;27377;50.666;9.150;2024-01-06T08:30:44;6.85;;;3.53;;
41693;SDS011;27377;50.666;9.150;2024-01-06T08:33:09;9.23;;;3.90;;
41693;SDS011;27377;50.666;9.150;2024-01-06T08:35:35;9.87;;;3.80;;
41693;SDS011;27377;50.666;9.150;2024-01-06T08:38:05;8.60;;;3.70;;
41693;SDS011;27377;50.666;9.150;2024-01-06T08:40:31;7.55;;;3.53;;
41693;SDS011;27377;50.666;9.150;2024-01-06T08:42:57;9.27;;;4.20;;
41693;SDS011;27377;50.666;9.150;2024-01-06T08:45:22;7.33;;;3.90;;
41693;SDS011;27377;50.666;9.150;2024-01-06T08:47:48;9.77;;;4.27;;
41693;SDS011;27377;50.666;9.150;2024-01-06T08:50:13;7.47;;;3.95;;
41693;SDS011;27377;50.666;9.150;2024-01-06T08:52:39;9.45;;;5.10;;
41693;SDS011;27377;50.666;9.150;2024-01-06T08:55:05;11.07;;;6.20;;
41693;SDS011;27377;50.666;9.150;2024-01-06T08:57:30;15.43;;;8.90;;
41693;SDS011;27377;50.666;9.150;2024-01-06T08:59:56;14.25;;;8.18;;
41693;SDS011;27377;50.666;9.150;2024-01-06T09:02:22;18.08;;;8.93;;
41693;SDS011;27377;50.666;9.150;2024-01-06T09:04:47;18.30;;;9.32;;
41693;SDS011;27377;50.666;9.150;2024-01-06T09:07:13;12.65;;;6.75;;
41693;SDS011;27377;50.666;9.150;2024-01-06T09:09:39;11.23;;;6.10;;
41693;SDS011;27377;50.666;9.150;2024-01-06T09:12:04;10.40;;;5.43;;
41693;SDS011;27377;50.666;9.150;2024-01-06T09:14:30;10.87;;;5.33;;
41693;SDS011;27377;50.666;9.150;2024-01-06T09:16:56;12.07;;;6.90;;
41693;SDS011;27377;50.666;9.150;2024-01-06T09:19:21;10.47;;;5.27;;
41693;SDS011;27377;50.666;9.150;2024-01-06T09:21:47;14.87;;;7.37;;
41693;SDS011;27377;50.666;9.150;2024-01-06T09:24:12;18.67;;;7.33;;
41693;SDS011;27377;50.666;9.150;2024-01-06T09:26:38;16.83;;;6.27;;
41693;SDS011;27377;50.666;9.150;2024-01-06T09:29:04;18.17;;;7.75;;
41693;SDS011;27377;50.666;9.150;2024-01-06T09:31:29;12.70;;;6.20;;
41693;SDS011;27377;50.666;9.150;2024-01-06T09:33:55;9.53;;;5.10;;
41693;SDS011;27377;50.666;9.150;2024-01-06T09:36:21;9.67;;;4.90;;
41693;SDS011;27377;50.666;9.150;2024-01-06T09:38:46;10.57;;;5.03;;
41693;SDS011;27377;50.666;9.150;2024-01-06T09:41:12;9.17;;;4.70;;
41693;SDS011;27377;50.666;9.150;2024-01-06T09:43:37;10.40;;;4.90;;
41693;SDS011;27377;50.666;9.150;2024-01-06T09:46:10;9.43;;;4.68;;
41693;SDS011;27377;50.666;9.150;2024-01-06T09:48:41;11.20;;;4.70;;
41693;SDS011;27377;50.666;9.150;2024-01-06T09:51:09;8.98;;;4.50;;
41693;SDS011;27377;50.666;9.150;2024-01-06T09:53:36;9.13;;;4.40;;
41693;SDS011;27377;50.666;9.150;2024-01-06T09:56:25;8.70;;;4.53;;
41693;SDS011;27377;50.666;9.150;2024-01-06T09:58:52;8.90;;;4.80;;
41693;SDS011;27377;50.666;9.150;2024-01-06T10:01:19;9.05;;;4.40;;
41693;SDS011;27377;50.666;9.150;2024-01-06T10:03:44;9.37;;;4.33;;
41693;SDS011;27377;50.666;9.150;2024-01-06T10:06:13;8.15;;;4.57;;
41693;SDS011;27377;50.666;9.150;2024-01-06T10:08:42;9.50;;;4.47;;
41693;SDS011;27377;50.666;9.150;2024-01-06T10:11:08;9.95;;;4.57;;
41693;SDS011;27377;50.666;9.150;2024-01-06T10:13:34;10.88;;;4.25;;
41693;SDS011;27377;50.666;9.150;2024-01-06T10:16:00;8.90;;;4.03;;
41693;SDS011;27377;50.666;9.150;2024-01-06T10:18:26;8.37;;;4.13;;
41693;SDS011;27377;50.666;9.150;2024-01-06T10:20:54;10.33;;;4.53;;
41693;SDS011;27377;50.666;9.150;2024-01-06T10:23:24;8.73;;;4.22;;
41693;SDS011;27377;50.666;9.150;2024-01-06T10:25:52;9.35;;;3.88;;
41693;SDS011;27377;50.666;9.150;2024-01-06T10:28:18;8.75;;;3.90;;
41693;SDS011;27377;50.666;9.150;2024-01-06T10:30:46;9.05;;;3.80;;
41693;SDS011;27377;50.666;9.150;2024-01-06T10:33:12;6.88;;;3.67;;
41693;SDS011;27377;50.666;9.150;2024-01-06T10:35:38;7.28;;;3.63;;
41693;SDS011;27377;50.666;9.150;2024-01-06T10:38:04;8.27;;;3.50;;
41693;SDS011;27377;50.666;9.150;2024-01-06T10:40:32;8.68;;;3.67;;
41693;SDS011;27377;50.666;9.150;2024-01-06T10:42:58;7.67;;;3.83;;
41693;SDS011;27377;50.666;9.150;2024-01-06T10:45:25;11.30;;;4.10;;
41693;SDS011;27377;50.666;9.150;2024-01-06T10:47:53;8.80;;;4.20;;
41693;SDS011;27377;50.666;9.150;2024-01-06T10:50:19;11.10;;;4.10;;
41693;SDS011;27377;50.666;9.150;2024-01-06T10:52:46;10.30;;;4.35;;
41693;SDS011;27377;50.666;9.150;2024-01-06T10:55:13;10.50;;;4.85;;
41693;SDS011;27377;50.666;9.150;2024-01-06T10:57:43;10.82;;;4.63;;
41693;SDS011;27377;50.666;9.150;2024-01-06T11:00:10;11.88;;;4.55;;
41693;SDS011;27377;50.666;9.150;2024-01-06T11:02:36;9.48;;;4.80;;
41693;SDS011;27377;50.666;9.150;2024-01-06T11:05:02;9.68;;;5.22;;
41693;SDS011;27377;50.666;9.150;2024-01-06T11:07:32;12.85;;;6.63;;
41693;SDS011;27377;50.666;9.150;2024-01-06T11:10:06;18.73;;;8.43;;
41693;SDS011;27377;50.666;9.150;2024-01-06T11:12:41;25.88;;;11.52;;
41693;SDS011;27377;50.666;9.150;2024-01-06T11:15:07;24.08;;;10.75;;
41693;SDS011;27377;50.666;9.150;2024-01-06T11:17:49;14.90;;;7.00;;
41693;SDS011;27377;50.666;9.150;2024-01-06T11:20:22;15.30;;;8.03;;
41693;SDS011;27377;50.666;9.150;2024-01-06T11:22:48;17.08;;;9.27;;
41693;SDS011;27377;50.666;9.150;2024-01-06T11:25:19;14.05;;;7.43;;
41693;SDS011;27377;50.666;9.150;2024-01-06T11:27:46;13.55;;;6.95;;
41693;SDS011;27377;50.666;9.150;2024-01-06T11:30:19;11.20;;;6.70;;
41693;SDS011;27377;50.666;9.150;2024-01-06T11:32:45;12.10;;;6.00;;
41693;SDS011;27377;50.666;9.150;2024-01-06T11:35:12;10.43;;;5.80;;
41693;SDS011;27377;50.666;9.150;2024-01-06T11:42:33;12.27;;;6.10;;
41693;SDS011;27377;50.666;9.150;2024-01-06T11:45:04;10.00;;;5.90;;
41693;SDS011;27377;50.666;9.150;2024-01-06T11:47:31;11.07;;;5.60;;
41693;SDS011;27377;50.666;9.150;2024-01-06T11:49:57;9.82;;;5.55;;
41693;SDS011;27377;50.666;9.150;2024-01-06T11:52:24;10.20;;;5.43;;
41693;SDS011;27377;50.666;9.150;2024-01-06T11:54:51;11.73;;;5.90;;
41693;SDS011;27377;50.666;9.150;2024-01-06T11:57:18;12.13;;;6.10;;
41693;SDS011;27377;50.666;9.150;2024-01-06T11:59:43;11.43;;;6.00;;
41693;SDS011;27377;50.666;9.150;2024-01-06T12:02:12;11.07;;;6.00;;
41693;SDS011;27377;50.666;9.150;2024-01-06T12:04:38;11.73;;;6.00;;
41693;SDS011;27377;50.666;9.150;2024-01-06T12:07:08;10.47;;;5.83;;
41693;SDS011;27377;50.666;9.150;2024-01-06T12:09:34;11.70;;;6.70;;
41693;SDS011;27377;50.666;9.150;2024-01-06T12:12:04;12.93;;;6.37;;
41693;SDS011;27377;50.666;9.150;2024-01-06T12:14:30;12.17;;;6.57;;
41693;SDS011;27377;50.666;9.150;2024-01-06T12:16:57;13.48;;;6.80;;
41693;SDS011;27377;50.666;9.150;2024-01-06T12:19:27;12.70;;;6.72;;
41693;SDS011;27377;50.666;9.150;2024-01-06T12:21:54;11.57;;;6.65;;
41693;SDS011;27377;50.666;9.150;2024-01-06T12:24:21;11.77;;;6.38;;
41693;SDS011;27377;50.666;9.150;2024-01-06T12:26:46;12.13;;;6.17;;
41693;SDS011;27377;50.666;9.150;2024-01-06T12:29:13;11.27;;;6.68;;
41693;SDS011;27377;50.666;9.150;2024-01-06T12:31:39;9.97;;;6.50;;
41693;SDS011;27377;50.666;9.150;2024-01-06T12:34:05;12.18;;;6.55;;
41693;SDS011;27377;50.666;9.150;2024-01-06T12:36:34;14.60;;;7.35;;
41693;SDS011;27377;50.666;9.150;2024-01-06T12:39:00;9.25;;;5.97;;
41693;SDS011;27377;50.666;9.150;2024-01-06T12:41:27;11.38;;;6.20;;
41693;SDS011;27377;50.666;9.150;2024-01-06T12:43:53;9.32;;;5.90;;
41693;SDS011;27377;50.666;9.150;2024-01-06T12:46:19;9.05;;;5.47;;
41693;SDS011;27377;50.666;9.150;2024-01-06T12:48:47;10.95;;;5.32;;
41693;SDS011;27377;50.666;9.150;2024-01-06T12:51:13;8.40;;;4.82;;
41693;SDS011;27377;50.666;9.150;2024-01-06T12:53:38;7.32;;;4.30;;
41693;SDS011;27377;50.666;9.150;2024-01-06T12:56:04;8.32;;;4.80;;
41693;SDS011;27377;50.666;9.150;2024-01-06T12:58:30;8.85;;;4.68;;
41693;SDS011;27377;50.666;9.150;2024-01-06T13:00:55;7.83;;;4.43;;
41693;SDS011;27377;50.666;9.150;2024-01-06T13:03:22;7.80;;;4.35;;
41693;SDS011;27377;50.666;9.150;2024-01-06T13:05:47;10.03;;;4.27;;
41693;SDS011;27377;50.666;9.150;2024-01-06T13:08:13;6.23;;;4.13;;
41693;SDS011;27377;50.666;9.150;2024-01-06T13:10:39;7.68;;;4.28;;
41693;SDS011;27377;50.666;9.150;2024-01-06T13:13:05;9.67;;;4.33;;
41693;SDS011;27377;50.666;9.150;2024-01-06T13:15:30;8.03;;;4.00;;
41693;SDS011;27377;50.666;9.150;2024-01-06T13:17:56;8.07;;;4.17;;
41693;SDS011;27377;50.666;9.150;2024-01-06T13:20:22;7.13;;;3.80;;
41693;SDS011;27377;50.666;9.150;2024-01-06T13:22:47;6.93;;;4.47;;
41693;SDS011;27377;50.666;9.150;2024-01-06T13:25:13;9.00;;;4.57;;
41693;SDS011;27377;50.666;9.150;2024-01-06T13:27:38;7.87;;;4.50;;
41693;SDS011;27377;50.666;9.150;2024-01-06T13:30:05;8.63;;;4.50;;
41693;SDS011;27377;50.666;9.150;2024-01-06T13:32:31;7.10;;;4.37;;
41693;SDS011;27377;50.666;9.150;2024-01-06T13:34:57;8.10;;;4.40;;
41693;SDS011;27377;50.666;9.150;2024-01-06T13:37:29;7.30;;;4.10;;
41693;SDS011;27377;50.666;9.150;2024-01-06T13:39:56;9.00;;;4.43;;
41693;SDS011;27377;50.666;9.150;2024-01-06T13:42:22;9.30;;;4.30;;
41693;SDS011;27377;50.666;9.150;2024-01-06T13:44:48;9.80;;;4.20;;
41693;SDS011;27377;50.666;9.150;2024-01-06T13:47:14;9.57;;;4.25;;
41693;SDS011;27377;50.666;9.150;2024-01-06T13:49:39;7.05;;;4.40;;
41693;SDS011;27377;50.666;9.150;2024-01-06T13:52:05;8.93;;;4.37;;
41693;SDS011;27377;50.666;9.150;2024-01-06T13:54:34;8.52;;;4.70;;
41693;SDS011;27377;50.666;9.150;2024-01-06T13:57:00;7.65;;;4.30;;
41693;SDS011;27377;50.666;9.150;2024-01-06T13:59:26;9.17;;;4.47;;
41693;SDS011;27377;50.666;9.150;2024-01-06T14:01:51;7.77;;;4.30;;
41693;SDS011;27377;50.666;9.150;2024-01-06T14:04:18;9.20;;;4.65;;
41693;SDS011;27377;50.666;9.150;2024-01-06T14:06:43;8.17;;;4.80;;
41693;SDS011;27377;50.666;9.150;2024-01-06T14:09:09;8.03;;;4.87;;
41693;SDS011;27377;50.666;9.150;2024-01-06T14:11:34;9.60;;;5.03;;
41693;SDS011;27377;50.666;9.150;2024-01-06T14:14:01;10.00;;;5.07;;
41693;SDS011;27377;50.666;9.150;2024-01-06T14:16:27;9.23;;;5.13;;
41693;SDS011;27377;50.666;9.150;2024-01-06T14:18:52;9.50;;;5.07;;
41693;SDS011;27377;50.666;9.150;2024-01-06T14:21:20;9.65;;;5.60;;
41693;SDS011;27377;50.666;9.150;2024-01-06T14:23:45;10.82;;;6.00;;
41693;SDS011;27377;50.666;9.150;2024-01-06T14:26:13;10.32;;;6.20;;
41693;SDS011;27377;50.666;9.150;2024-01-06T14:28:38;12.23;;;6.00;;
41693;SDS011;27377;50.666;9.150;2024-01-06T14:31:04;9.13;;;5.85;;
41693;SDS011;27377;50.666;9.150;2024-01-06T14:33:30;10.77;;;6.50;;
41693;SDS011;27377;50.666;9.150;2024-01-06T14:35:56;10.88;;;6.40;;
41693;SDS011;27377;50.666;9.150;2024-01-06T14:38:21;8.95;;;6.03;;
41693;SDS011;27377;50.666;9.150;2024-01-06T14:40:47;13.60;;;7.85;;
41693;SDS011;27377;50.666;9.150;2024-01-06T14:43:13;14.50;;;8.40;;
41693;SDS011;27377;50.666;9.150;2024-01-06T14:45:38;17.40;;;10.60;;